Time;durP1;ratioP1;P1;durP2;ratioP2;P2;SDS_P1;SDS_P2;PMS_P1;PMS_P2;Temp;Humidity;BMP_temperature;BMP_pressure;BME280_temperature;BME280_humidity;BME280_pressure;Samples;Min_cycle;Max_cycle;Signal;HPM_P1;HPM_P2
2022/07/27 00:05:23;;;;;;;;;3.00;2.50;;;;;19.99;52.52;101196.41;5019219;28;45645;-81
2022/07/27 00:07:49;;;;;;;;;2.75;2.00;;;;;19.94;52.88;101194.22;5018605;28;45656;-83
2022/07/27 00:10:15;;;;;;;;;3.25;3.00;;;;;19.88;53.28;101180.72;5001001;28;48377;-83
2022/07/27 00:12:41;;;;;;;;;3.25;3.25;;;;;19.85;53.13;101179.22;5004491;28;45591;-82
2022/07/27 00:15:07;;;;;;;;;4.00;3.00;;;;;19.79;53.49;101171.84;5022734;28;45615;-84
2022/07/27 00:20:55;;;;;;;;;3.50;3.00;;;;;19.83;54.22;101173.19;5020207;28;45805;-84
2022/07/27 00:23:21;;;;;;;;;3.00;2.75;;;;;19.81;53.71;101180.47;5022464;28;45694;-83
2022/07/27 00:25:46;;;;;;;;;4.00;4.00;;;;;19.82;53.81;101168.88;5022324;28;45863;-83
2022/07/27 00:28:12;;;;;;;;;4.00;3.50;;;;;19.86;53.54;101174.72;5022716;28;46367;-81
2022/07/27 00:30:37;;;;;;;;;2.00;2.00;;;;;19.88;53.90;101175.38;5021511;28;46338;-81
2022/07/27 00:33:04;;;;;;;;;3.75;3.00;;;;;19.86;53.59;101175.56;5004002;28;45639;-84
2022/07/27 00:35:29;;;;;;;;;4.00;3.50;;;;;19.87;53.58;101171.06;5021505;28;45535;-84
2022/07/27 00:37:55;;;;;;;;;3.00;2.75;;;;;19.89;53.74;101174.41;5004434;28;47696;-82
2022/07/27 00:40:20;;;;;;;;;4.00;3.00;;;;;19.80;53.58;101170.88;5021659;28;45526;-79
2022/07/27 00:42:46;;;;;;;;;4.00;2.50;;;;;19.81;54.09;101169.84;5002548;28;45642;-84
2022/07/27 00:45:11;;;;;;;;;4.00;3.00;;;;;19.81;54.00;101163.72;5020145;28;45386;-84
2022/07/27 00:50:59;;;;;;;;;3.50;2.00;;;;;19.79;54.73;101169.19;5018996;28;45491;-83
2022/07/27 00:53:25;;;;;;;;;3.75;3.25;;;;;19.74;54.43;101160.00;5019958;28;45531;-79
2022/07/27 00:55:50;;;;;;;;;3.75;3.50;;;;;19.76;54.53;101164.16;5019703;28;45692;-81
2022/07/27 00:58:16;;;;;;;;;4.25;4.25;;;;;19.74;54.90;101162.66;5019556;28;45790;-79
2022/07/27 01:00:41;;;;;;;;;3.00;3.00;;;;;19.78;55.00;101164.84;5019724;28;45725;-82
2022/07/27 01:06:30;;;;;;;;;4.50;3.50;;;;;19.75;55.35;101159.84;5014951;28;45619;-81
2022/07/27 01:11:41;;;;;;;;;6.00;4.00;;;;;19.68;55.38;101153.47;5015045;28;45715;-80
2022/07/27 01:14:07;;;;;;;;;3.00;2.75;;;;;19.65;55.51;101156.44;5015525;28;45761;-83
2022/07/27 01:16:32;;;;;;;;;3.00;3.00;;;;;19.64;55.55;101152.97;5015375;28;45656;-83
2022/07/27 01:18:57;;;;;;;;;4.00;3.75;;;;;19.69;55.66;101160.47;5018351;28;45623;-79
2022/07/27 01:21:23;;;;;;;;;3.50;3.00;;;;;19.67;55.69;101149.13;4983163;28;46994;-83
2022/07/27 01:23:48;;;;;;;;;4.00;4.00;;;;;19.66;56.07;101147.47;4996075;28;45528;-81
2022/07/27 01:26:14;;;;;;;;;5.00;4.25;;;;;19.60;55.67;101140.94;5000510;28;45653;-83
2022/07/27 01:28:42;;;;;;;;;6.00;4.75;;;;;19.68;55.54;101159.63;4995121;28;45667;-80
2022/07/27 01:31:08;;;;;;;;;5.00;3.00;;;;;19.64;55.75;101144.97;4995297;28;45623;-84
2022/07/27 01:33:33;;;;;;;;;3.25;2.50;;;;;19.55;55.88;101140.56;4994914;28;45864;-81
2022/07/27 01:35:59;;;;;;;;;5.00;4.00;;;;;19.53;56.53;101134.59;4995119;28;45509;-80
2022/07/27 01:38:24;;;;;;;;;5.50;4.00;;;;;19.59;56.47;101141.97;4994800;28;46460;-79
2022/07/27 01:40:52;;;;;;;;;2.50;2.00;;;;;19.51;56.31;101133.06;4995170;28;46083;-82
2022/07/27 01:43:18;;;;;;;;;5.00;4.00;;;;;19.57;56.39;101143.09;4995047;28;45687;-82
2022/07/27 01:45:44;;;;;;;;;4.75;3.00;;;;;19.56;56.43;101141.41;4994865;28;45602;-81
2022/07/27 01:51:31;;;;;;;;;3.50;3.50;;;;;19.51;56.03;101136.56;4994429;28;45907;-84
2022/07/27 01:53:58;;;;;;;;;3.00;3.00;;;;;19.51;56.20;101141.03;4994592;28;45699;-83
2022/07/27 01:56:24;;;;;;;;;5.00;4.00;;;;;19.44;56.29;101129.31;4994723;28;45610;-82
2022/07/27 01:58:49;;;;;;;;;4.00;3.00;;;;;19.49;56.32;101137.69;4994525;28;45516;-82
2022/07/27 02:01:15;;;;;;;;;3.25;3.25;;;;;19.47;56.82;101134.38;4994729;28;46156;-83
2022/07/27 02:07:02;;;;;;;;;2.75;2.75;;;;;19.43;56.62;101132.97;4994472;28;45703;-84
2022/07/27 02:09:27;;;;;;;;;5.75;4.75;;;;;19.43;56.50;101138.28;4994433;28;46498;-82
2022/07/27 02:14:37;;;;;;;;;3.00;3.00;;;;;19.45;56.78;101128.34;4994571;28;45607;-80
2022/07/27 02:17:02;;;;;;;;;5.00;4.00;;;;;19.42;56.89;101137.47;4994786;28;45819;-82
2022/07/27 02:19:27;;;;;;;;;4.50;3.00;;;;;19.43;56.71;101135.63;4994471;28;45673;-81
2022/07/27 02:21:53;;;;;;;;;4.00;3.75;;;;;19.43;57.17;101132.97;5013128;28;45662;-78
2022/07/27 02:24:19;;;;;;;;;3.75;3.00;;;;;19.41;57.03;101135.78;5014255;28;45567;-82
2022/07/27 02:26:44;;;;;;;;;3.00;3.00;;;;;19.30;57.06;101128.03;5014227;28;45581;-82
2022/07/27 02:29:10;;;;;;;;;5.75;4.00;;;;;19.30;56.82;101128.03;5013848;28;45653;-81
2022/07/27 02:31:35;;;;;;;;;3.75;3.75;;;;;19.27;57.33;101131.81;4996003;28;47439;-78
2022/07/27 02:34:01;;;;;;;;;3.00;3.00;;;;;19.27;57.00;101136.34;5014051;28;45649;-81
2022/07/27 02:36:29;;;;;;;;;2.25;2.25;;;;;19.25;57.23;101130.31;4995930;28;45986;-83
2022/07/27 02:38:56;;;;;;;;;3.00;3.00;;;;;19.27;57.59;101145.09;5014009;28;45597;-83
2022/07/27 02:41:21;;;;;;;;;2.50;2.50;;;;;19.21;57.46;101129.81;5013760;28;45649;-82
2022/07/27 02:43:47;;;;;;;;;4.50;3.50;;;;;19.24;57.58;101140.13;5013632;28;45469;-83
2022/07/27 02:46:12;;;;;;;;;4.00;4.00;;;;;19.21;57.68;101137.78;5013841;28;45786;-80
2022/07/27 02:52:00;;;;;;;;;4.00;3.25;;;;;19.17;57.91;101135.53;5013510;28;45585;-79
2022/07/27 02:54:26;;;;;;;;;5.50;3.50;;;;;19.13;57.89;101132.38;5013510;28;45567;-81
2022/07/27 02:56:53;;;;;;;;;4.00;3.75;;;;;19.09;57.65;101138.13;5013724;28;45682;-81
2022/07/27 02:59:20;;;;;;;;;3.25;3.25;;;;;19.09;57.47;101136.31;5013505;28;46681;-84
2022/07/27 03:01:46;;;;;;;;;3.50;3.50;;;;;19.06;58.06;101133.94;4995418;28;48235;-82
2022/07/27 03:07:33;;;;;;;;;2.75;2.00;;;;;19.01;57.82;101132.72;5013409;28;45615;-80
2022/07/27 03:09:59;;;;;;;;;2.00;2.00;;;;;18.91;57.94;101119.53;5013184;28;45713;-81
2022/07/27 03:12:25;;;;;;;;;3.00;2.00;;;;;18.94;57.82;101124.56;5013348;28;46222;-83
2022/07/27 03:14:50;;;;;;;;;5.00;3.00;;;;;18.92;57.48;101117.69;5013042;28;45921;-83
2022/07/27 03:17:16;;;;;;;;;4.00;3.00;;;;;18.92;57.46;101126.50;5013341;28;45655;-83
2022/07/27 03:19:41;;;;;;;;;3.75;3.75;;;;;18.87;57.71;101118.16;5012839;28;47002;-83
2022/07/27 03:22:06;;;;;;;;;3.00;2.00;;;;;18.86;57.59;101117.31;5013108;28;46604;-83
2022/07/27 03:24:32;;;;;;;;;3.00;3.00;;;;;18.83;57.61;101119.44;5013727;28;45599;-83
2022/07/27 03:26:57;;;;;;;;;6.00;4.00;;;;;18.81;57.87;101113.44;4998700;28;46048;-82
2022/07/27 03:29:22;;;;;;;;;3.00;2.75;;;;;18.89;57.36;101133.94;5016486;28;46441;-81
2022/07/27 03:31:48;;;;;;;;;5.75;4.50;;;;;18.80;57.70;101117.91;5016628;28;45567;-84
2022/07/27 03:37:36;;;;;;;;;5.50;4.00;;;;;18.83;57.69;101130.91;5016259;28;45595;-83
2022/07/27 03:40:02;;;;;;;;;3.00;2.00;;;;;18.81;57.64;101132.03;5017145;28;46674;-82
2022/07/27 03:42:28;;;;;;;;;6.25;5.00;;;;;18.77;57.89;101125.34;5016409;28;45667;-80
2022/07/27 03:44:53;;;;;;;;;4.50;3.25;;;;;18.74;57.96;101125.63;5016327;28;45586;-81
2022/07/27 03:47:19;;;;;;;;;3.00;3.00;;;;;18.72;57.78;101127.63;5016462;28;45699;-81
2022/07/27 03:49:44;;;;;;;;;3.00;3.00;;;;;18.72;57.74;101131.13;5015947;28;45850;-84
2022/07/27 03:52:09;;;;;;;;;4.00;3.00;;;;;18.60;57.74;101116.38;5016370;28;45599;-83
2022/07/27 03:54:35;;;;;;;;;4.00;3.00;;;;;18.60;57.80;101119.03;5016250;28;45868;-84
2022/07/27 03:57:01;;;;;;;;;4.00;4.00;;;;;18.60;57.60;101116.38;5016197;28;45597;-84
2022/07/27 03:59:26;;;;;;;;;4.75;4.00;;;;;18.65;58.01;101129.19;5016340;28;46543;-83
2022/07/27 04:01:52;;;;;;;;;5.00;4.00;;;;;18.57;57.55;101119.31;5016222;28;45756;-80
2022/07/27 04:07:39;;;;;;;;;5.25;3.75;;;;;18.56;57.20;101122.97;5016040;28;45501;-81
2022/07/27 04:10:06;;;;;;;;;3.25;2.75;;;;;18.49;57.51;101121.00;4997983;28;46725;-81
2022/07/27 04:12:35;;;;;;;;;4.00;4.00;;;;;18.52;57.79;101129.50;5016559;28;45589;-81
2022/07/27 04:15:00;;;;;;;;;4.25;3.50;;;;;18.45;57.83;101118.66;5015960;28;45737;-81
2022/07/27 04:17:26;;;;;;;;;2.25;2.25;;;;;18.40;57.62;101112.97;5016037;28;45606;-81
2022/07/27 04:23:53;;;;;;;;;3.00;2.75;;;;;18.39;57.42;101129.84;5015069;28;46071;-82
2022/07/27 04:26:19;;;;;;;;;4.00;3.00;;;;;18.38;57.94;101128.19;5016295;28;46153;-83
2022/07/27 04:28:44;;;;;;;;;6.50;3.00;;;;;18.27;57.88;101108.94;5016378;28;45720;-84
2022/07/27 04:31:09;;;;;;;;;3.00;3.00;;;;;18.32;57.33;101130.56;5016045;28;46686;-83
2022/07/27 04:33:35;;;;;;;;;3.00;2.00;;;;;18.23;57.74;101115.53;5015668;28;45758;-84
2022/07/27 04:36:00;;;;;;;;;4.00;3.50;;;;;18.25;57.45;101124.16;5015653;28;45759;-82
2022/07/27 04:38:26;;;;;;;;;6.00;3.00;;;;;18.16;57.22;101123.25;5015847;28;45650;-82
2022/07/27 04:40:51;;;;;;;;;4.75;3.00;;;;;18.20;58.13;101135.22;5016116;28;46263;-82
2022/07/27 04:43:16;;;;;;;;;3.75;2.75;;;;;18.18;57.42;101134.56;5015958;28;45681;-83
2022/07/27 04:45:42;;;;;;;;;3.50;2.25;;;;;18.20;57.55;101129.06;5015818;28;45775;-81
2022/07/27 04:48:09;;;;;;;;;4.00;2.00;;;;;18.15;57.36;101129.53;5015764;28;45655;-82
2022/07/27 04:50:39;;;;;;;;;3.00;3.00;;;;;18.14;57.96;101124.38;5015380;28;46503;-84
2022/07/27 04:53:05;;;;;;;;;3.00;3.00;;;;;18.10;57.58;101120.31;5015546;28;45974;-82
2022/07/27 04:55:30;;;;;;;;;2.75;2.75;;;;;18.06;57.81;101118.94;4996893;28;45707;-82
2022/07/27 04:57:55;;;;;;;;;4.25;2.75;;;;;18.07;57.51;101126.78;5015520;28;45739;-83
2022/07/27 05:00:21;;;;;;;;;2.50;2.00;;;;;18.05;57.63;101118.09;4997641;28;47541;-82
2022/07/27 05:02:46;;;;;;;;;3.25;2.25;;;;;17.96;57.70;101105.72;5015240;28;45594;-82
2022/07/27 05:08:34;;;;;;;;;3.00;3.00;;;;;18.06;57.45;101119.78;5015260;28;45700;-82
2022/07/27 05:10:59;;;;;;;;;3.25;3.00;;;;;18.04;57.38;101132.34;5016711;28;46544;-80
2022/07/27 05:13:25;;;;;;;;;3.50;3.50;;;;;18.06;57.14;101134.84;5015345;28;45749;-82
2022/07/27 05:18:25;;;;;;;;;3.75;2.75;;;;;18.04;57.21;101141.13;5012075;28;46119;-84
2022/07/27 05:20:51;;;;;;;;;3.25;2.00;;;;;18.08;56.95;101139.06;5013138;28;46564;-80
2022/07/27 05:23:16;;;;;;;;;3.50;2.75;;;;;18.09;57.23;101148.66;4995409;28;48343;-83
2022/07/27 05:25:42;;;;;;;;;3.00;2.00;;;;;18.09;56.78;101146.00;5013602;28;46066;-81
2022/07/27 05:28:09;;;;;;;;;2.25;2.25;;;;;18.10;56.70;101146.84;5013604;28;46293;-80
2022/07/27 05:30:35;;;;;;;;;3.75;3.00;;;;;18.09;57.12;101143.34;5011892;28;47040;-82
2022/07/27 05:33:00;;;;;;;;;4.25;3.00;;;;;18.03;56.59;101142.13;5012044;28;45964;-81
2022/07/27 05:35:26;;;;;;;;;6.25;3.25;;;;;18.08;56.54;101149.66;5010944;28;45653;-82
2022/07/27 05:37:51;;;;;;;;;3.00;3.00;;;;;18.09;56.48;101145.16;5013169;28;46040;-81
2022/07/27 05:40:44;;;;;;;;;4.00;1.50;;;;;18.09;57.00;101140.69;4994802;28;48456;-84
2022/07/27 05:43:09;;;;;;;;;3.00;3.00;;;;;17.96;56.60;101119.00;5012050;28;46062;-81
2022/07/27 05:45:35;;;;;;;;;4.75;3.00;;;;;18.12;56.51;101144.91;5011288;28;45994;-81
2022/07/27 05:48:00;;;;;;;;;3.00;2.00;;;;;18.14;56.40;101146.41;5014997;28;45622;-82
2022/07/27 05:50:26;;;;;;;;;2.25;2.00;;;;;18.16;56.58;101141.81;5011655;28;45649;-81
2022/07/27 05:52:51;;;;;;;;;2.00;2.00;;;;;18.17;56.57;101146.13;5010958;28;45887;-81
2022/07/27 05:55:17;;;;;;;;;4.00;3.00;;;;;18.16;56.19;101149.75;5011343;28;46412;-81
2022/07/27 05:57:42;;;;;;;;;2.75;2.50;;;;;18.24;55.93;101149.06;5011144;28;46126;-79
2022/07/27 06:00:09;;;;;;;;;3.75;3.00;;;;;18.13;56.46;101136.81;5006347;28;47496;-81
2022/07/27 06:02:35;;;;;;;;;3.25;3.25;;;;;18.27;55.97;101168.16;5011070;28;46105;-81
2022/07/27 06:05:00;;;;;;;;;4.50;3.00;;;;;18.22;56.21;101151.00;5010771;28;45744;-79
2022/07/27 06:10:10;;;;;;;;;5.50;4.00;;;;;18.31;55.79;101161.56;5012830;28;45750;-82
2022/07/27 06:12:43;;;;;;;;;6.00;4.00;;;;;18.25;55.81;101146.22;5010924;28;46124;-82
2022/07/27 06:15:10;;;;;;;;;4.00;3.00;;;;;18.29;55.57;101157.41;5007440;28;47104;-79
2022/07/27 06:17:36;;;;;;;;;5.50;4.75;;;;;18.32;56.07;101168.56;5015803;28;45981;-84
2022/07/27 06:20:04;;;;;;;;;4.00;3.25;;;;;18.36;55.63;101164.63;5012206;28;46799;-79
2022/07/27 06:22:30;;;;;;;;;6.25;4.50;;;;;18.37;55.87;101158.34;5012100;28;46620;-80
2022/07/27 06:24:56;;;;;;;;;2.50;2.50;;;;;18.43;55.84;101167.53;4993812;28;46038;-81
2022/07/27 06:27:21;;;;;;;;;4.50;4.00;;;;;18.38;55.36;101162.66;4999411;28;45812;-75
2022/07/27 06:29:46;;;;;;;;;4.25;4.00;;;;;18.42;55.41;101158.72;5013559;28;46580;-80
2022/07/27 06:32:12;;;;;;;;;6.00;4.50;;;;;18.50;55.77;101168.63;5013013;28;45663;-80
2022/07/27 06:34:37;;;;;;;;;3.50;3.50;;;;;18.48;55.57;101157.31;5011214;28;46064;-77
2022/07/27 06:37:03;;;;;;;;;3.00;3.00;;;;;18.55;55.69;101170.88;5012432;28;45704;-79
2022/07/27 06:39:28;;;;;;;;;3.00;3.00;;;;;18.61;55.49;101171.13;5011524;28;46167;-77
2022/07/27 06:41:54;;;;;;;;;5.50;4.75;;;;;18.58;55.51;101167.91;5011910;28;45761;-80
2022/07/27 06:44:20;;;;;;;;;5.75;5.00;;;;;18.65;55.26;101171.66;5011428;28;45878;-77
2022/07/27 06:46:46;;;;;;;;;4.50;4.25;;;;;18.72;55.39;101170.94;4995339;28;45831;-75
2022/07/27 06:49:12;;;;;;;;;4.25;4.00;;;;;18.74;55.23;101179.56;4996952;28;48404;-84
2022/07/27 06:51:38;;;;;;;;;3.25;2.50;;;;;18.75;55.03;101167.13;5011937;28;46687;-81
2022/07/27 06:54:03;;;;;;;;;5.75;4.75;;;;;18.83;54.95;101178.69;5014426;28;45730;-77
2022/07/27 06:56:29;;;;;;;;;4.50;3.50;;;;;18.85;55.03;101175.88;5017463;28;45630;-77
2022/07/27 06:58:55;;;;;;;;;4.00;3.75;;;;;18.89;54.21;101174.63;5016441;28;46805;-81
2022/07/27 07:01:21;;;;;;;;;5.25;4.50;;;;;18.88;54.54;101169.44;5019072;28;45756;-77
2022/07/27 07:03:47;;;;;;;;;5.25;4.00;;;;;18.91;54.55;101175.28;5018887;28;45441;-81
2022/07/27 07:06:12;;;;;;;;;6.00;3.75;;;;;18.94;54.12;101180.31;5015863;28;45632;-76
2022/07/27 07:08:38;;;;;;;;;5.25;4.25;;;;;18.98;54.41;101184.34;5015359;28;46134;-77
2022/07/27 07:11:04;;;;;;;;;4.00;4.00;;;;;19.02;54.43;101190.19;5015309;28;46116;-79
2022/07/27 07:13:29;;;;;;;;;5.00;5.00;;;;;19.06;54.53;101189.72;5009317;28;45702;-77
2022/07/27 07:15:55;;;;;;;;;7.00;5.00;;;;;19.09;54.15;101189.44;5014983;28;45967;-80
2022/07/27 07:18:21;;;;;;;;;5.00;4.25;;;;;19.12;53.95;101181.16;5014001;28;45729;-83
2022/07/27 07:20:47;;;;;;;;;6.75;5.00;;;;;19.16;54.10;101179.88;5015315;28;46217;-81
2022/07/27 07:23:12;;;;;;;;;8.00;6.75;;;;;19.16;53.94;101171.91;5015365;28;45912;-76
2022/07/27 07:25:38;;;;;;;;;7.50;5.25;;;;;19.24;53.96;101179.13;5017324;28;46123;-79
2022/07/27 07:28:05;;;;;;;;;4.00;4.00;;;;;19.26;53.87;101180.66;5019927;28;45740;-82
2022/07/27 07:30:31;;;;;;;;;6.00;5.00;;;;;19.26;54.07;101175.34;5014661;28;46441;-76
2022/07/27 07:32:57;;;;;;;;;7.00;6.00;;;;;19.35;54.24;101186.88;5013885;28;45599;-77
2022/07/27 07:35:24;;;;;;;;;5.00;4.25;;;;;19.37;53.94;101181.41;4996432;28;46057;-78
2022/07/27 07:37:50;;;;;;;;;5.25;4.50;;;;;19.40;54.22;101183.75;5014476;28;46765;-79
2022/07/27 07:40:15;;;;;;;;;6.75;6.25;;;;;19.44;53.79;101193.09;5014858;28;46568;-80
2022/07/27 07:42:47;;;;;;;;;7.25;6.00;;;;;19.48;54.12;101189.19;5015033;28;45760;-80
2022/07/27 07:45:14;;;;;;;;;8.25;7.00;;;;;19.44;54.31;101185.97;5015334;28;45924;-82
2022/07/27 07:47:43;;;;;;;;;6.00;5.75;;;;;19.53;53.93;101189.56;5021461;28;45676;-84
2022/07/27 07:50:08;;;;;;;;;8.50;8.00;;;;;19.56;53.73;101189.25;5016056;28;46376;-79
2022/07/27 07:52:34;;;;;;;;;7.00;7.00;;;;;19.56;53.47;101183.94;5014435;28;45765;-77
2022/07/27 07:54:59;;;;;;;;;6.00;5.75;;;;;19.57;53.69;101189.13;5014844;28;45816;-81
2022/07/27 07:57:24;;;;;;;;;9.00;7.50;;;;;19.62;53.44;101188.66;5014602;28;47474;-79
2022/07/27 07:59:54;;;;;;;;;9.00;7.50;;;;;19.66;53.56;101190.00;5018253;28;45682;-77
2022/07/27 08:02:20;;;;;;;;;7.50;5.00;;;;;19.71;53.47;101185.06;5019031;28;45768;-80
2022/07/27 08:04:46;;;;;;;;;8.00;6.75;;;;;19.74;53.59;101184.78;5017622;28;45754;-77
2022/07/27 08:07:12;;;;;;;;;6.00;6.00;;;;;19.77;53.38;101181.78;5016027;28;45646;-79
2022/07/27 08:09:37;;;;;;;;;6.75;6.75;;;;;19.81;53.11;101179.69;5015430;28;45836;-82
2022/07/27 08:12:03;;;;;;;;;7.00;7.00;;;;;19.84;53.30;101174.03;5015609;28;45694;-81
2022/07/27 08:14:28;;;;;;;;;8.50;7.50;;;;;19.87;53.43;101177.22;5016174;28;45688;-83
2022/07/27 08:16:54;;;;;;;;;7.25;6.00;;;;;19.87;53.24;101166.56;5015566;28;46680;-76
2022/07/27 08:19:19;;;;;;;;;7.75;7.25;;;;;19.94;53.33;101175.59;5016349;28;46472;-78
2022/07/27 08:21:48;;;;;;;;;10.00;9.00;;;;;19.95;52.94;101165.81;5016266;28;46231;-78
2022/07/27 08:24:13;;;;;;;;;7.50;6.50;;;;;19.99;53.32;101175.97;5015355;28;45777;-78
2022/07/27 08:26:39;;;;;;;;;6.00;6.00;;;;;20.04;53.13;101179.00;5013932;28;46628;-81
2022/07/27 08:29:04;;;;;;;;;9.25;8.75;;;;;20.10;52.82;101181.03;5014424;28;45747;-79
2022/07/27 08:31:29;;;;;;;;;8.00;7.00;;;;;20.13;52.71;101172.72;5014187;28;46133;-75
2022/07/27 08:33:55;;;;;;;;;7.50;7.00;;;;;20.17;52.54;101175.09;5013676;28;45851;-80
2022/07/27 08:36:20;;;;;;;;;8.75;6.75;;;;;20.21;52.29;101171.94;5014929;28;46326;-87
2022/07/27 08:38:46;;;;;;;;;6.25;5.50;;;;;20.19;52.45;101170.47;5013764;28;45776;-79
2022/07/27 08:41:14;;;;;;;;;8.00;6.75;;;;;20.25;52.23;101173.31;5013834;28;45980;-83
2022/07/27 08:43:42;;;;;;;;;8.25;8.00;;;;;20.29;52.14;101174.69;5013429;28;45698;-77
2022/07/27 08:46:09;;;;;;;;;7.00;6.25;;;;;20.35;52.66;101173.25;5012747;28;45988;-85
2022/07/27 08:48:37;;;;;;;;;7.00;7.00;;;;;20.38;52.11;101181.75;5012962;28;45850;-78
2022/07/27 08:51:03;;;;;;;;;9.25;8.25;;;;;20.45;52.16;101176.63;5013104;28;45756;-82
2022/07/27 08:53:33;;;;;;;;;7.25;7.25;;;;;20.51;52.05;101179.47;5014784;28;46302;-78
2022/07/27 08:55:58;;;;;;;;;8.50;6.00;;;;;20.56;51.62;101172.84;5012442;28;45753;-81
2022/07/27 08:58:24;;;;;;;;;8.50;7.00;;;;;20.59;51.78;101176.00;5012770;28;47145;-81
2022/07/27 09:00:50;;;;;;;;;10.00;7.00;;;;;20.65;51.64;101179.84;5013218;28;46031;-78
2022/07/27 09:03:18;;;;;;;;;9.00;7.75;;;;;20.67;51.61;101170.72;5013702;28;45745;-83
2022/07/27 09:05:53;;;;;;;;;7.75;6.75;;;;;20.74;51.63;101168.25;5013333;28;45797;-85
2022/07/27 09:08:26;;;;;;;;;7.00;6.50;;;;;20.79;51.25;101171.25;5013386;28;45930;-77
2022/07/27 09:10:53;;;;;;;;;8.50;7.50;;;;;20.83;51.00;101177.94;5000329;28;45808;-85
2022/07/27 09:13:21;;;;;;;;;7.75;7.75;;;;;20.83;51.03;101173.44;5013324;28;45624;-83
2022/07/27 09:15:50;;;;;;;;;8.00;7.50;;;;;20.84;50.77;101164.44;5012489;28;47478;-80
2022/07/27 09:18:25;;;;;;;;;10.00;7.00;;;;;20.91;51.20;101175.28;5011655;28;46068;-81
2022/07/27 09:21:18;;;;;;;;;8.00;8.00;;;;;20.93;50.69;101170.66;5013352;28;45974;-81
2022/07/27 09:23:54;;;;;;;;;4.75;4.25;;;;;20.95;50.20;101176.63;5013209;28;46364;-85
2022/07/27 09:26:22;;;;;;;;;8.00;7.00;;;;;20.94;50.35;101173.13;5014096;28;46120;-84
2022/07/27 09:29:03;;;;;;;;;7.00;6.50;;;;;20.97;50.19;101173.81;5012949;28;46009;-80
2022/07/27 09:31:30;;;;;;;;;9.25;8.75;;;;;20.96;50.36;101167.66;5012410;28;45619;-84
2022/07/27 09:33:59;;;;;;;;;7.75;6.25;;;;;21.02;50.40;101175.00;5012129;28;45734;-82
2022/07/27 09:36:27;;;;;;;;;8.50;6.75;;;;;21.06;49.70;101180.81;5013219;28;45655;-81
2022/07/27 09:39:10;;;;;;;;;7.50;7.50;;;;;21.10;49.58;101169.69;5012919;28;45917;-83
2022/07/27 09:42:04;;;;;;;;;7.25;7.25;;;;;21.16;49.45;101173.56;5013129;28;45806;-79
2022/07/27 09:44:35;;;;;;;;;7.00;6.75;;;;;21.19;49.47;101174.06;5014097;28;45732;-81
2022/07/27 09:47:19;;;;;;;;;6.75;6.50;;;;;21.20;49.04;101167.75;5003788;28;46823;-80
2022/07/27 09:49:45;;;;;;;;;7.00;6.00;;;;;21.23;49.25;101166.56;5013409;28;46701;-78
2022/07/27 09:52:22;;;;;;;;;8.75;6.50;;;;;21.25;48.97;101169.91;5012891;28;45858;-79
2022/07/27 09:54:48;;;;;;;;;5.50;5.50;;;;;21.25;48.52;101162.75;5002402;28;45777;-79
2022/07/27 09:57:14;;;;;;;;;6.00;5.25;;;;;21.31;48.82;101162.09;5012352;28;46876;-78
2022/07/27 09:59:39;;;;;;;;;6.00;6.00;;;;;21.34;48.37;101169.75;5012703;28;45655;-83
2022/07/27 10:02:05;;;;;;;;;7.25;6.50;;;;;21.35;48.50;101171.44;5012716;28;45595;-86
2022/07/27 10:04:34;;;;;;;;;5.75;5.25;;;;;21.37;48.81;101159.78;5012885;28;45681;-82
2022/07/27 10:07:00;;;;;;;;;6.00;5.00;;;;;21.43;48.23;101151.13;5012034;28;46851;-83
2022/07/27 10:09:28;;;;;;;;;4.50;4.50;;;;;21.46;48.23;101156.09;4994763;28;46392;-86
2022/07/27 10:11:54;;;;;;;;;6.00;5.00;;;;;21.50;48.42;101155.59;5012596;28;45747;-84
2022/07/27 10:14:19;;;;;;;;;6.00;5.75;;;;;21.58;47.88;101152.94;5012436;28;46010;-85
2022/07/27 10:16:49;;;;;;;;;4.00;4.00;;;;;21.71;47.71;101152.41;4993779;28;47418;-77
2022/07/27 10:19:21;;;;;;;;;5.00;4.00;;;;;21.80;46.88;101150.59;4995344;28;46547;-81
2022/07/27 10:21:47;;;;;;;;;4.00;4.00;;;;;21.85;46.21;101143.75;4994901;28;46059;-78
2022/07/27 10:24:30;;;;;;;;;3.50;3.00;;;;;21.91;46.57;101142.25;5012100;28;45692;-76
2022/07/27 10:26:55;;;;;;;;;3.00;3.00;;;;;22.01;45.45;101151.75;5011782;28;46130;-83
2022/07/27 10:29:23;;;;;;;;;3.75;3.25;;;;;22.08;45.71;101155.41;5011853;28;46251;-78
2022/07/27 10:31:51;;;;;;;;;5.75;4.75;;;;;22.12;44.99;101151.41;5012073;28;46653;-80
2022/07/27 10:34:33;;;;;;;;;3.25;3.00;;;;;22.13;45.07;101134.38;5013684;28;45981;-80
2022/07/27 10:37:07;;;;;;;;;4.50;4.00;;;;;;;;5006897;28;46773;-81
2022/07/27 10:39:36;;;;;;;;;4.50;4.00;;;;;22.28;43.96;101150.53;5015572;28;45535;-81
2022/07/27 10:42:23;;;;;;;;;3.75;3.50;;;;;22.31;43.61;101142.16;5016705;28;45627;-85
2022/07/27 10:44:59;;;;;;;;;4.25;3.00;;;;;22.33;43.85;101142.84;5017589;28;45875;-77
2022/07/27 10:47:43;;;;;;;;;4.50;4.25;;;;;22.36;43.81;101145.16;5020991;28;47462;-80
2022/07/27 10:50:15;;;;;;;;;4.25;3.25;;;;;22.40;44.31;101138.44;5015789;28;46029;-81
2022/07/27 10:53:01;;;;;;;;;7.25;3.25;;;;;22.47;44.27;101136.75;5016142;28;45671;-83
2022/07/27 10:55:29;;;;;;;;;4.00;4.00;;;;;22.59;43.78;101135.38;4997694;28;45830;-83
2022/07/27 10:57:56;;;;;;;;;3.25;3.00;;;;;22.64;43.43;101123.34;5015386;28;45708;-87
2022/07/27 11:00:50;;;;;;;;;3.50;2.50;;;;;22.82;42.23;101130.13;5016077;28;46371;-79
2022/07/27 11:03:20;;;;;;;;;3.25;2.00;;;;;22.91;41.95;101125.56;5015639;28;45743;-78
2022/07/27 11:05:54;;;;;;;;;4.50;3.25;;;;;22.99;42.49;101125.50;5016180;28;46012;-84
2022/07/27 11:08:33;;;;;;;;;5.00;4.00;;;;;23.00;42.26;101119.13;5017264;28;47190;-89
2022/07/27 11:10:59;;;;;;;;;3.00;3.00;;;;;23.06;42.00;101115.75;5017023;28;46293;-88
2022/07/27 11:13:29;;;;;;;;;5.00;4.00;;;;;23.04;41.91;101108.94;5017459;28;45756;-87
2022/07/27 11:16:05;;;;;;;;;4.25;4.00;;;;;23.08;41.79;101104.91;4999941;28;45753;-83
2022/07/27 11:18:42;;;;;;;;;3.75;3.75;;;;;23.17;41.92;101109.16;5017518;28;46530;-88
2022/07/27 11:21:32;;;;;;;;;5.75;4.50;;;;;23.16;41.98;101102.97;5017938;28;46170;-88
2022/07/27 11:24:18;;;;;;;;;4.75;3.75;;;;;23.21;41.85;101105.16;5018466;28;45753;-87
2022/07/27 11:26:45;;;;;;;;;3.25;3.00;;;;;23.25;41.12;101112.63;5017438;28;45705;-87
2022/07/27 11:29:12;;;;;;;;;2.00;2.00;;;;;23.26;40.78;101106.28;5017099;28;45581;-85
2022/07/27 11:31:39;;;;;;;;;3.00;3.00;;;;;23.28;41.40;101106.91;5016877;28;46488;-83
2022/07/27 11:34:06;;;;;;;;;4.00;3.00;;;;;23.28;40.97;101100.72;5015878;28;45708;-87
2022/07/27 11:36:37;;;;;;;;;4.00;4.00;;;;;23.39;40.72;101103.81;5015837;28;45713;-86
2022/07/27 11:39:04;;;;;;;;;2.50;2.50;;;;;23.45;40.79;101096.91;5016125;28;46704;-83
2022/07/27 11:41:34;;;;;;;;;2.25;2.00;;;;;23.51;40.45;101090.03;5016250;28;45555;-85
2022/07/27 11:44:21;;;;;;;;;3.25;3.00;;;;;23.61;40.62;101091.44;5017026;28;45649;-81
2022/07/27 11:46:48;;;;;;;;;4.00;3.00;;;;;23.69;40.62;101090.53;5007075;28;45650;-87
2022/07/27 11:49:17;;;;;;;;;3.25;2.50;;;;;23.76;40.13;101088.78;5018903;28;45697;-85
2022/07/27 11:51:45;;;;;;;;;4.00;2.00;;;;;23.81;38.93;101094.41;5024229;28;46584;-87
2022/07/27 11:54:16;;;;;;;;;3.00;2.50;;;;;23.83;39.17;101092.38;5024064;28;45661;-87
2022/07/27 11:57:06;;;;;;;;;4.00;3.25;;;;;23.86;38.89;101102.72;5023438;28;45555;-92
2022/07/27 11:59:33;;;;;;;;;3.75;3.00;;;;;23.90;38.93;101096.00;5005829;28;45781;-91
2022/07/27 12:02:02;;;;;;;;;2.25;1.50;;;;;23.94;38.65;101085.75;5019973;28;45531;-81
2022/07/27 12:04:29;;;;;;;;;3.25;1.75;;;;;23.96;38.36;101073.03;5018996;28;45708;-91
2022/07/27 12:06:59;;;;;;;;;2.50;2.50;;;;;24.01;37.92;101081.31;5019360;28;45567;-89
2022/07/27 12:09:26;;;;;;;;;3.00;3.00;;;;;24.03;38.35;101074.75;5018849;28;45691;-90
2022/07/27 12:12:06;;;;;;;;;2.50;2.00;;;;;24.06;38.69;101073.56;5019644;28;45673;-87
2022/07/27 12:14:37;;;;;;;;;3.00;3.00;;;;;24.06;38.59;101063.69;5021126;28;45611;-80
2022/07/27 12:17:31;;;;;;;;;3.00;3.00;;;;;24.17;38.23;101081.13;5024074;28;45681;-87
2022/07/27 12:20:03;;;;;;;;;2.50;2.00;;;;;24.25;37.64;101073.03;5027912;28;45685;-92
2022/07/27 12:22:32;;;;;;;;;3.00;2.00;;;;;24.28;38.01;101059.28;5026242;28;45637;-89